Quick Links (Output Below):   Max & Min Temps   /   Climate Reports   /   Zone Forecasts
River Forecasts   /   Forestry Forecasts   /   Aviation Forecasts   /   Radars   /   Features

Terminal Aerodrome Forecast (Monticello)

Pick a Site:
Arkadelphia | El Dorado | Fayetteville | Fort Smith | Harrison | Highfill | Hot Springs | Jonesboro
Little Rock | Monticello | Mountain Home | Pine Bluff | Texarkana
 Forecast 

KLLQ 031515Z 0315/0412 24009KT P6SM -RA VCTS SCT040CB BKN100 OVC250
     FM032000 24009G16KT P6SM -TSRA SCT040CB BKN100 OVC250
      AMD NOT SKED=


 Latest METARs (Observations) 
How to Decode METARs
18Z KLLQ 031753Z AUTO 25005KT 10SM FEW022 BKN041 27/24 A3000 RMK AO2
         SLP154 T02720244 10272 20256 53004 $
         
16Z KLLQ 031553Z AUTO 22006KT 10SM BKN020 BKN025 27/24 A2998 RMK AO2
         SLP149 T02670239 $
         
15Z KLLQ 031453Z AUTO 23006KT 10SM 26/24 A2998 RMK AO2 SLP150
         T02610239 53012 $
         
14Z KLLQ 031353Z AUTO 24008KT 10SM FEW075 26/24 A2997 RMK AO2 SLP145
         T02560239
         
09Z KLLQ 030853Z AUTO 23009KT 10SM CLR 26/23 A2992 RMK AO2 SLP129
         T02610233 56008
         
08Z KLLQ 030753Z AUTO 23009KT 10SM CLR 27/23 A2992 RMK AO2 SLP128
         T02670233
         
07Z KLLQ 030653Z AUTO 22009KT 10SM CLR 27/23 A2993 RMK AO2 SLP131
         T02670233
         
04Z KLLQ 030353Z AUTO 22004KT 10SM CLR 28/23 A2995 RMK AO2 SLP138
         T02780233
         
***** Today's Observations (Above) *****


22Z KLLQ 022153Z AUTO 23009KT 10SM CLR 33/22 A2992 RMK AO2 SLP127
         T03280222
         
18Z KLLQ 021753Z AUTO 24012G24KT 10SM CLR 29/22 A2997 RMK AO2 SLP144
         T02940217 10294 20239 58009
         
***** Yesterday's Observations (Above) *****


Back to Main Page
http://www.srh.noaa.gov/lzk/qfcst.php

USA.gov is the U.S. government's official web portal to all federal, state and local government web resources and services.